Time;durP1;ratioP1;P1;durP2;ratioP2;P2;SDS_P1;SDS_P2;PMS_P1;PMS_P2;Temp;Humidity;BMP_temperature;BMP_pressure;BME280_temperature;BME280_humidity;BME280_pressure;Samples;Min_cycle;Max_cycle;Signal;HPM_P1;HPM_P2
2022/11/26 00:00:27;;;;;;;16.40;5.95;;;;;;;6.30;100.00;101343.28;4992310;28;20270;-73
2022/11/26 00:02:53;;;;;;;18.95;6.15;;;;;;;6.41;100.00;101372.94;4997712;28;20586;-73
2022/11/26 00:05:22;;;;;;;24.27;6.95;;;;;;;6.41;100.00;101378.22;5001069;28;20053;-72
2022/11/26 00:07:56;;;;;;;16.15;6.00;;;;;;;6.29;100.00;101378.38;4997936;28;20193;-74
2022/11/26 00:10:29;;;;;;;14.80;5.53;;;;;;;6.35;100.00;101388.81;4987736;28;20057;-70
2022/11/26 00:12:56;;;;;;;14.45;5.82;;;;;;;6.32;100.00;101386.22;4998975;28;20056;-72
2022/11/26 00:15:27;;;;;;;12.85;6.00;;;;;;;6.17;100.00;101368.88;5003903;28;20062;-71
2022/11/26 00:17:55;;;;;;;15.90;5.65;;;;;;;6.27;100.00;101390.69;4993819;28;20046;-71
2022/11/26 00:20:27;;;;;;;16.67;6.35;;;;;;;6.26;100.00;101400.34;4983193;28;20051;-71
2022/11/26 00:22:57;;;;;;;18.95;6.63;;;;;;;6.25;100.00;101406.50;5001127;28;20042;-71
2022/11/26 00:25:37;;;;;;;17.63;6.40;;;;;;;6.21;100.00;101401.28;4994680;28;20080;-72
2022/11/26 00:28:21;;;;;;;17.10;5.70;;;;;;;6.24;100.00;101412.63;5000486;28;20125;-73
2022/11/26 00:30:48;;;;;;;18.90;5.80;;;;;;;6.18;100.00;101409.19;4987905;28;20212;-73
2022/11/26 00:33:14;;;;;;;19.98;6.15;;;;;;;6.11;100.00;101415.44;4992197;28;20049;-72
2022/11/26 00:35:41;;;;;;;16.67;6.20;;;;;;;6.06;100.00;101412.88;5004747;28;20062;-73
2022/11/26 00:38:15;;;;;;;14.98;6.47;;;;;;;6.10;100.00;101416.34;4995010;28;20046;-71
2022/11/26 00:40:41;;;;;;;17.27;5.90;;;;;;;6.09;100.00;101411.97;4986292;28;20065;-72
2022/11/26 00:43:12;;;;;;;15.20;6.30;;;;;;;6.15;100.00;101415.38;4992242;28;20046;-71
2022/11/26 00:45:39;;;;;;;;;;;;;;;6.19;100.00;101418.84;4995282;28;20136;-73
2022/11/26 00:48:06;;;;;;;15.50;6.15;;;;;;;5.99;100.00;101396.28;4994055;28;19925;-72
2022/11/26 00:50:47;;;;;;;12.88;5.22;;;;;;;6.07;100.00;101416.38;4983077;28;20042;-71
2022/11/26 00:53:18;;;;;;;16.83;5.80;;;;;;;6.07;100.00;101424.25;5004004;28;20094;-71
2022/11/26 00:55:47;;;;;;;18.42;6.40;;;;;;;6.02;100.00;101415.53;5000016;28;20561;-71
2022/11/26 00:58:26;;;;;;;17.83;6.00;;;;;;;6.05;100.00;101431.28;4995450;28;20133;-71
2022/11/26 01:00:55;;;;;;;16.58;5.53;;;;;;;6.05;100.00;101437.41;4990140;28;20391;-71
2022/11/26 01:03:22;;;;;;;19.08;6.68;;;;;;;5.93;100.00;101420.03;4998824;28;20096;-72
2022/11/26 01:05:51;;;;;;;20.48;5.53;;;;;;;5.98;100.00;101441.88;5005302;28;20075;-69
2022/11/26 01:08:33;;;;;;;18.25;6.45;;;;;;;5.96;100.00;101442.78;4988409;28;20072;-72
2022/11/26 01:11:02;;;;;;;14.52;5.90;;;;;;;5.87;100.00;101445.47;4978043;28;20183;-72
2022/11/26 01:13:30;;;;;;;17.55;4.95;;;;;;;5.75;100.00;101424.59;5002922;28;20050;-72
2022/11/26 01:15:58;;;;;;;17.05;5.40;;;;;;;5.85;100.00;101455.13;4999076;28;20077;-72
2022/11/26 01:18:26;;;;;;;20.20;6.00;;;;;;;5.76;100.00;101442.97;4988501;28;20046;-72
2022/11/26 01:20:53;;;;;;;20.38;5.50;;;;;;;5.79;100.00;101461.34;4985304;28;20129;-70
2022/11/26 01:23:19;;;;;;;22.55;5.78;;;;;;;5.77;100.00;101459.63;5001710;28;20050;-73
2022/11/26 01:25:46;;;;;;;13.43;5.95;;;;;;;5.61;100.00;101451.00;4997257;28;20049;-70
2022/11/26 01:28:16;;;;;;;24.13;7.00;;;;;;;5.70;100.00;101466.69;4989709;28;20054;-72
2022/11/26 01:30:44;;;;;;;21.98;6.45;;;;;;;5.66;100.00;101472.88;4985702;28;20524;-71
2022/11/26 01:33:11;;;;;;;23.83;6.05;;;;;;;5.60;100.00;101475.53;5002165;28;20146;-71
2022/11/26 01:35:37;;;;;;;24.90;6.47;;;;;;;5.60;100.00;101480.81;5003518;28;20075;-72
2022/11/26 01:38:04;;;;;;;26.58;6.60;;;;;;;5.58;100.00;101486.06;4995147;28;20139;-70
2022/11/26 01:40:53;;;;;;;22.63;6.45;;;;;;;5.55;100.00;101487.84;4988656;28;20052;-70
2022/11/26 01:43:31;;;;;;;17.77;5.50;;;;;;;5.41;100.00;101463.44;4987503;28;20085;-71
2022/11/26 01:45:58;;;;;;;16.17;5.55;;;;;;;5.51;100.00;101499.28;4998406;28;20076;-72
2022/11/26 01:48:33;;;;;;;20.80;6.00;;;;;;;5.48;100.00;101504.56;4998411;28;20056;-73
2022/11/26 01:51:05;;;;;;;21.20;5.80;;;;;;;5.45;100.00;101508.09;4987176;28;20132;-70
2022/11/26 01:53:40;;;;;;;17.52;5.45;;;;;;;5.41;100.00;101502.84;5005594;28;20060;-70
2022/11/26 01:56:31;;;;;;;22.15;5.95;;;;;;;5.33;100.00;101502.06;4990644;28;20073;-71
2022/11/26 01:59:27;;;;;;;16.77;5.93;;;;;;;5.36;100.00;101513.38;4986997;28;20722;-70
2022/11/26 02:01:57;;;;;;;17.13;5.32;;;;;;;5.35;100.00;101519.56;4999448;28;20149;-70
2022/11/26 02:04:32;;;;;;;19.65;5.80;;;;;;;5.32;100.00;101513.44;4993932;28;20153;-72
2022/11/26 02:06:59;;;;;;;16.50;6.22;;;;;;;5.29;100.00;101517.84;4994087;28;20505;-71
2022/11/26 02:09:27;;;;;;;19.27;6.05;;;;;;;5.33;100.00;101520.44;4981949;28;20111;-71
2022/11/26 02:11:54;;;;;;;17.02;5.70;;;;;;;5.37;100.00;101528.25;4991184;28;20069;-71
2022/11/26 02:14:47;;;;;;;14.38;5.22;;;;;;;5.42;100.00;101534.38;5002735;28;20144;-72
2022/11/26 02:17:25;;;;;;;15.43;5.00;;;;;;;5.47;100.00;101547.47;4989420;28;20129;-70
2022/11/26 02:19:58;;;;;;;17.33;6.03;;;;;;;5.43;100.00;101527.34;4978920;28;20067;-70
2022/11/26 02:22:43;;;;;;;21.95;6.55;;;;;;;5.67;100.00;101547.31;4996900;28;20061;-72
2022/11/26 02:25:41;;;;;;;21.60;5.72;;;;;;;5.76;100.00;101549.84;4993343;28;20142;-71
2022/11/26 02:28:37;;;;;;;19.63;5.85;;;;;;;5.79;100.00;101547.22;4951766;28;20077;-72
2022/11/26 02:31:14;;;;;;;22.67;6.30;;;;;;;5.85;100.00;101553.25;4984358;28;20129;-73
2022/11/26 02:34:04;;;;;;;19.30;6.43;;;;;;;5.83;100.00;101548.91;4991941;28;20510;-72
2022/11/26 02:36:37;;;;;;;20.08;6.50;;;;;;;5.81;100.00;101553.31;4988998;28;20232;-73
2022/11/26 02:39:15;;;;;;;20.25;7.30;;;;;;;5.85;100.00;101569.03;4997194;28;20054;-71
2022/11/26 02:41:47;;;;;;;14.52;6.40;;;;;;;5.84;100.00;101564.66;4982782;28;20153;-70
2022/11/26 02:44:17;;;;;;;15.13;6.22;;;;;;;5.70;100.00;101540.25;4997272;28;20168;-71
2022/11/26 02:46:48;;;;;;;23.07;6.83;;;;;;;5.76;100.00;101558.63;4997984;28;20051;-72
2022/11/26 02:49:19;;;;;;;18.55;6.88;;;;;;;5.76;100.00;101563.88;4986520;28;20482;-70
2022/11/26 02:51:54;;;;;;;18.42;5.93;;;;;;;5.75;100.00;101569.13;4996722;28;20079;-71
2022/11/26 02:54:23;;;;;;;19.67;6.00;;;;;;;5.73;100.00;101569.16;5000902;28;20335;-71
2022/11/26 02:56:52;;;;;;;17.33;6.15;;;;;;;5.64;100.00;101559.59;4996768;28;20048;-71
2022/11/26 02:59:19;;;;;;;20.08;5.90;;;;;;;5.68;100.00;101563.03;4987203;28;20059;-72
2022/11/26 03:02:04;;;;;;;16.60;5.60;;;;;;;5.40;100.00;101515.13;4987326;28;20056;-70
2022/11/26 03:04:36;;;;;;;18.08;5.50;;;;;;;5.77;100.00;101570.88;4995639;28;20054;-71
2022/11/26 03:07:05;;;;;;;17.17;6.07;;;;;;;5.80;100.00;101584.00;4991964;28;20402;-72
2022/11/26 03:09:53;;;;;;;21.60;5.95;;;;;;;5.59;100.00;101548.25;4989600;28;20586;-71
2022/11/26 03:12:21;;;;;;;16.33;5.32;;;;;;;5.76;100.00;101571.75;4990068;28;20085;-70
2022/11/26 03:14:47;;;;;;;20.00;5.43;;;;;;;5.74;100.00;101583.16;4994963;28;20450;-71
2022/11/26 03:17:15;;;;;;;17.98;6.05;;;;;;;5.72;100.00;101585.81;4996572;28;20067;-70
2022/11/26 03:19:42;;;;;;;17.73;5.95;;;;;;;5.68;100.00;101567.44;4980793;28;20138;-69
2022/11/26 03:22:11;;;;;;;22.95;6.38;;;;;;;5.70;100.00;101577.06;4992441;28;20046;-70
2022/11/26 03:24:38;;;;;;;20.60;6.33;;;;;;;5.69;100.00;101580.56;4996777;28;20065;-71
2022/11/26 03:27:05;;;;;;;17.65;5.90;;;;;;;5.63;100.00;101581.50;4996041;28;20997;-71
2022/11/26 03:29:32;;;;;;;20.88;5.72;;;;;;;5.66;100.00;101598.13;4986927;28;20149;-71
2022/11/26 03:31:58;;;;;;;21.20;5.57;;;;;;;5.61;100.00;101592.91;4990824;28;20146;-71
2022/11/26 03:34:25;;;;;;;17.00;5.38;;;;;;;5.63;100.00;101596.41;4993454;28;20108;-71
2022/11/26 03:36:52;;;;;;;20.70;6.18;;;;;;;5.65;100.00;101592.00;4995832;28;20137;-71
2022/11/26 03:39:18;;;;;;;18.75;5.95;;;;;;;5.63;100.00;101585.88;4997679;28;20065;-71
2022/11/26 03:41:45;;;;;;;17.30;5.97;;;;;;;5.65;100.00;101592.00;4981986;28;20046;-72
2022/11/26 03:44:12;;;;;;;21.00;5.97;;;;;;;5.69;100.00;101592.81;4998473;28;20089;-71
2022/11/26 03:46:39;;;;;;;15.45;5.60;;;;;;;5.67;100.00;101595.47;4994705;28;20344;-73
2022/11/26 03:49:06;;;;;;;14.52;6.00;;;;;;;5.64;100.00;101595.50;4991330;28;20058;-70
2022/11/26 03:51:33;;;;;;;16.13;6.50;;;;;;;5.62;100.00;101589.41;4977475;28;20137;-71
2022/11/26 03:53:59;;;;;;;23.42;6.78;;;;;;;5.63;100.00;101596.41;5002878;28;20129;-71
2022/11/26 03:56:26;;;;;;;18.58;6.47;;;;;;;5.66;100.00;101582.38;4998027;28;20321;-71
2022/11/26 03:58:52;;;;;;;23.08;6.53;;;;;;;5.67;100.00;101587.59;4991854;28;20134;-71
2022/11/26 04:01:19;;;;;;;17.27;6.80;;;;;;;5.63;100.00;101585.88;4983525;28;20076;-72
2022/11/26 04:03:46;;;;;;;18.95;5.80;;;;;;;5.59;100.00;101581.53;4998265;28;20422;-72
2022/11/26 04:06:12;;;;;;;13.07;5.22;;;;;;;5.60;100.00;101591.16;5003286;28;20529;-72
2022/11/26 04:08:39;;;;;;;15.32;5.88;;;;;;;5.53;100.00;101579.81;4992317;28;20122;-72
2022/11/26 04:11:05;;;;;;;14.38;5.88;;;;;;;5.51;100.00;101592.09;4982602;28;20506;-71
2022/11/26 04:13:32;;;;;;;22.15;6.25;;;;;;;5.45;100.00;101591.28;5004473;28;20061;-72
2022/11/26 04:15:58;;;;;;;21.85;6.07;;;;;;;5.40;100.00;101600.94;4998037;28;20140;-71
2022/11/26 04:18:25;;;;;;;27.67;7.15;;;;;;;5.42;100.00;101593.91;4992383;28;20053;-72
2022/11/26 04:20:51;;;;;;;22.30;7.00;;;;;;;5.37;100.00;101579.94;4982930;28;20068;-72
2022/11/26 04:23:20;;;;;;;19.40;6.13;;;;;;;5.38;100.00;101598.31;5001795;28;20414;-71
2022/11/26 04:25:46;;;;;;;17.48;5.72;;;;;;;5.32;100.00;101594.88;4998622;28;20046;-71
2022/11/26 04:28:14;;;;;;;18.55;6.25;;;;;;;5.27;100.00;101590.50;5003211;28;20066;-72
2022/11/26 04:30:42;;;;;;;15.02;5.68;;;;;;;5.25;100.00;101594.00;4984390;28;20069;-70
2022/11/26 04:33:08;;;;;;;15.15;6.03;;;;;;;5.29;100.00;101594.00;4993509;28;20089;-71
2022/11/26 04:35:37;;;;;;;17.90;5.68;;;;;;;5.36;100.00;101594.81;5004232;28;20046;-71
2022/11/26 04:38:04;;;;;;;15.25;5.95;;;;;;;5.36;100.00;101596.56;4995470;28;20052;-71
2022/11/26 04:40:30;;;;;;;17.85;5.97;;;;;;;5.32;100.00;101594.88;4990339;28;20487;-71
2022/11/26 04:42:57;;;;;;;19.48;6.00;;;;;;;5.28;100.00;101600.13;4996313;28;20089;-71
2022/11/26 04:45:24;;;;;;;17.40;6.15;;;;;;;5.07;100.00;101600.25;4999883;28;20477;-71
2022/11/26 04:47:50;;;;;;;14.70;5.93;;;;;;;5.07;100.00;101620.38;4995273;28;20058;-72
2022/11/26 04:50:17;;;;;;;23.67;6.80;;;;;;;4.94;100.00;101624.81;4988826;28;20077;-70
2022/11/26 04:52:47;;;;;;;19.80;6.18;;;;;;;4.93;100.00;101637.06;4992494;28;20049;-71
2022/11/26 04:55:15;;;;;;;21.77;7.25;;;;;;;4.87;100.00;101638.84;5000929;28;20105;-72
2022/11/26 04:57:42;;;;;;;21.73;6.78;;;;;;;4.81;100.00;101644.13;4994453;28;20050;-71
2022/11/26 05:00:09;;;;;;;20.73;6.80;;;;;;;4.78;100.00;101646.75;4991277;28;20082;-71
2022/11/26 05:02:36;;;;;;;19.83;7.03;;;;;;;4.68;100.00;101643.28;4984989;28;20076;-71
2022/11/26 05:05:02;;;;;;;15.38;6.40;;;;;;;4.54;100.00;101630.22;4999592;28;20525;-71
2022/11/26 05:07:29;;;;;;;19.00;7.40;;;;;;;4.62;100.00;101643.28;4999661;28;20046;-70
2022/11/26 05:09:56;;;;;;;18.88;7.40;;;;;;;4.66;100.00;101650.28;4998332;28;20054;-71
2022/11/26 05:12:22;;;;;;;15.88;7.05;;;;;;;4.73;100.00;101654.63;4978973;28;20062;-71
2022/11/26 05:14:49;;;;;;;20.88;6.78;;;;;;;4.74;100.00;101652.88;5005541;28;20588;-70
2022/11/26 05:17:15;;;;;;;15.95;6.68;;;;;;;4.83;100.00;101663.34;4998000;28;20057;-71
2022/11/26 05:19:42;;;;;;;16.70;6.55;;;;;;;4.82;100.00;101656.34;4993301;28;20524;-70
2022/11/26 05:22:09;;;;;;;21.73;7.03;;;;;;;4.82;100.00;101664.22;4976395;28;20125;-71
2022/11/26 05:24:36;;;;;;;19.80;6.40;;;;;;;4.74;100.00;101668.63;4998678;28;20093;-70
2022/11/26 05:27:03;;;;;;;20.25;7.68;;;;;;;4.67;100.00;101675.66;4997727;28;20570;-70
2022/11/26 05:29:31;;;;;;;18.27;7.95;;;;;;;4.20;100.00;101618.91;4994075;28;20045;-70
2022/11/26 05:31:58;;;;;;;24.45;7.57;;;;;;;4.54;100.00;101685.31;4974098;28;20499;-71
2022/11/26 05:34:24;;;;;;;19.55;7.35;;;;;;;4.52;100.00;101691.41;4991714;28;20070;-71
2022/11/26 05:36:51;;;;;;;19.80;7.57;;;;;;;4.46;100.00;101684.41;4996246;28;20046;-72
2022/11/26 05:39:17;;;;;;;24.80;7.90;;;;;;;4.45;100.00;101693.16;4998397;28;20078;-71
2022/11/26 05:41:44;;;;;;;24.95;8.02;;;;;;;4.42;100.00;101690.53;4979307;28;20050;-69
2022/11/26 05:44:11;;;;;;;17.20;7.30;;;;;;;4.38;100.00;101691.44;5000373;28;20076;-71
2022/11/26 05:46:40;;;;;;;13.45;6.75;;;;;;;4.37;100.00;101697.56;4994337;28;20053;-71
2022/11/26 05:49:07;;;;;;;21.38;7.63;;;;;;;4.38;100.00;101706.31;4996005;28;20103;-72
2022/11/26 05:51:33;;;;;;;22.10;8.35;;;;;;;4.26;100.00;101678.31;4978911;28;20043;-71
2022/11/26 05:54:00;;;;;;;26.30;8.82;;;;;;;4.39;100.00;101713.28;4993994;28;20136;-71
2022/11/26 05:56:27;;;;;;;23.58;7.75;;;;;;;4.34;100.00;101699.31;4986635;28;20119;-71
2022/11/26 05:58:53;;;;;;;19.98;7.53;;;;;;;4.34;100.00;101705.41;4998119;28;20046;-70
2022/11/26 06:01:20;;;;;;;19.75;7.78;;;;;;;4.37;100.00;101715.03;4983670;28;20068;-71
2022/11/26 06:03:46;;;;;;;22.27;7.28;;;;;;;4.35;100.00;101712.41;4994030;28;20561;-71
2022/11/26 06:06:13;;;;;;;17.20;7.20;;;;;;;4.38;100.00;101717.66;4995575;28;20054;-71
2022/11/26 06:08:40;;;;;;;23.55;7.28;;;;;;;4.37;100.00;101725.53;4997309;28;20053;-70
2022/11/26 06:11:11;;;;;;;19.60;7.00;;;;;;;4.38;100.00;101727.28;4975768;28;20142;-71
2022/11/26 06:13:38;;;;;;;19.15;6.40;;;;;;;4.42;100.00;101729.88;5001133;28;20535;-71
2022/11/26 06:16:04;;;;;;;19.05;6.15;;;;;;;4.44;100.00;101728.13;4996435;28;20694;-70
2022/11/26 06:18:31;;;;;;;16.17;6.30;;;;;;;4.41;100.00;101720.25;4988812;28;20181;-71
2022/11/26 06:21:03;;;;;;;16.92;6.85;;;;;;;4.38;100.00;101741.28;4982414;28;20046;-72
2022/11/26 06:23:30;;;;;;;18.70;7.60;;;;;;;4.37;100.00;101736.91;4992192;28;20057;-71
2022/11/26 06:25:57;;;;;;;12.52;6.50;;;;;;;4.39;100.00;101735.16;4996595;28;20079;-70
2022/11/26 06:28:24;;;;;;;21.95;6.90;;;;;;;4.43;100.00;101730.75;4999480;28;20046;-71
2022/11/26 06:30:50;;;;;;;17.90;6.60;;;;;;;4.46;100.00;101747.38;4982702;28;20748;-72
2022/11/26 06:33:17;;;;;;;23.08;7.75;;;;;;;4.51;100.00;101740.38;4983168;28;20046;-72
2022/11/26 06:35:43;;;;;;;21.10;6.45;;;;;;;4.51;100.00;101744.75;5001893;28;20052;-72
2022/11/26 06:38:10;;;;;;;19.77;6.32;;;;;;;4.52;100.00;101746.50;4993013;28;20053;-69
2022/11/26 06:40:36;;;;;;;23.05;7.07;;;;;;;4.52;100.00;101757.88;4998322;28;20445;-71
2022/11/26 06:43:03;;;;;;;20.10;7.72;;;;;;;4.32;100.00;101737.75;4989110;28;20042;-70
2022/11/26 06:45:30;;;;;;;19.33;7.20;;;;;;;4.33;100.00;101764.00;5007638;28;20068;-73
2022/11/26 06:47:56;;;;;;;24.08;7.85;;;;;;;4.28;100.00;101776.22;4989662;28;20150;-70
2022/11/26 06:50:23;;;;;;;18.35;7.93;;;;;;;4.19;100.00;101776.22;4993019;28;20050;-70
2022/11/26 06:52:53;;;;;;;23.42;8.13;;;;;;;4.14;100.00;101781.44;4987912;28;20375;-70
2022/11/26 06:55:20;;;;;;;25.48;8.40;;;;;;;4.13;100.00;101782.31;4989505;28;20046;-70
2022/11/26 06:57:50;;;;;;;22.05;9.00;;;;;;;4.13;100.00;101789.31;4994503;28;20130;-71
2022/11/26 07:00:17;;;;;;;20.50;8.90;;;;;;;4.11;100.00;101791.03;4995615;28;20050;-69
2022/11/26 07:02:44;;;;;;;23.40;7.95;;;;;;;4.11;100.00;101788.44;4978837;28;20210;-71
2022/11/26 07:05:10;;;;;;;22.88;8.82;;;;;;;4.19;100.00;101794.56;4999352;28;20052;-71
2022/11/26 07:07:38;;;;;;;21.38;8.07;;;;;;;4.25;100.00;101785.84;4997904;28;20363;-71
2022/11/26 07:10:06;;;;;;;19.60;8.15;;;;;;;4.31;100.00;101788.47;4994395;28;20042;-71
2022/11/26 07:12:32;;;;;;;23.88;9.20;;;;;;;4.24;100.00;101771.88;4981213;28;20081;-73
2022/11/26 07:14:59;;;;;;;18.27;8.35;;;;;;;4.41;100.00;101803.31;5003353;28;20052;-72
2022/11/26 07:17:27;;;;;;;20.98;8.50;;;;;;;4.42;100.00;101819.06;4995532;28;20142;-72
2022/11/26 07:19:54;;;;;;;18.88;8.32;;;;;;;4.42;100.00;101813.81;4995096;28;20483;-71
2022/11/26 07:22:20;;;;;;;28.08;8.95;;;;;;;4.47;100.00;101813.81;4981967;28;20060;-72
2022/11/26 07:24:47;;;;;;;19.73;9.02;;;;;;;4.53;100.00;101814.72;4995467;28;20149;-72
2022/11/26 07:27:14;;;;;;;22.25;7.80;;;;;;;4.56;100.00;101817.31;4997684;28;20081;-72
2022/11/26 07:29:40;;;;;;;20.13;8.15;;;;;;;4.62;100.00;101826.94;4992080;28;20078;-73
2022/11/26 07:32:07;;;;;;;22.25;8.85;;;;;;;4.68;100.00;101826.09;4981508;28;20395;-69
2022/11/26 07:34:33;;;;;;;22.63;10.13;;;;;;;4.72;100.00;101827.84;4995076;28;20462;-70
2022/11/26 07:37:00;;;;;;;24.42;9.63;;;;;;;4.77;100.00;101831.31;4998757;28;20518;-71
2022/11/26 07:39:27;;;;;;;22.92;10.10;;;;;;;4.70;100.00;101808.59;5005072;28;20061;-71
2022/11/26 07:41:53;;;;;;;20.77;9.35;;;;;;;4.76;100.00;101812.06;4984509;28;20070;-71
2022/11/26 07:44:20;;;;;;;23.13;9.35;;;;;;;4.93;100.00;101835.69;5001049;28;20090;-71
2022/11/26 07:46:46;;;;;;;24.13;9.00;;;;;;;4.97;100.00;101844.44;5002471;28;20061;-71
2022/11/26 07:49:13;;;;;;;19.50;8.70;;;;;;;4.95;100.00;101839.19;4999528;28;20058;-71
2022/11/26 07:51:39;;;;;;;22.63;8.75;;;;;;;5.03;100.00;101839.19;4986387;28;20047;-72
2022/11/26 07:54:07;;;;;;;16.00;8.27;;;;;;;5.03;100.00;101833.94;4991014;28;20046;-73
2022/11/26 07:56:34;;;;;;;27.00;8.60;;;;;;;5.00;100.00;101831.31;4996738;28;20045;-74
2022/11/26 07:59:01;;;;;;;19.88;8.55;;;;;;;5.11;100.00;101848.78;4994729;28;20675;-71
2022/11/26 08:01:29;;;;;;;21.58;8.05;;;;;;;5.13;100.00;101844.41;4981522;28;20051;-71
2022/11/26 08:03:57;;;;;;;25.40;8.30;;;;;;;5.16;100.00;101843.53;4992608;28;20409;-69
2022/11/26 08:06:27;;;;;;;19.65;8.98;;;;;;;5.09;100.00;101811.16;5004704;28;20052;-71
2022/11/26 08:08:54;;;;;;;19.27;8.40;;;;;;;5.29;100.00;101835.63;5000685;28;20386;-71
2022/11/26 08:11:22;;;;;;;19.95;9.10;;;;;;;5.37;100.00;101842.59;4992884;28;20507;-72
2022/11/26 08:14:01;;;;;;;17.98;8.32;;;;;;;5.42;100.00;101853.97;4995150;28;20056;-72
2022/11/26 08:16:27;;;;;;;18.45;8.20;;;;;;;5.45;100.00;101849.59;4995192;28;20157;-70
2022/11/26 08:19:00;;;;;;;18.73;9.43;;;;;;;5.49;100.00;101850.47;4992596;28;20065;-71
2022/11/26 08:21:27;;;;;;;18.38;9.23;;;;;;;5.25;100.00;101820.75;4988472;28;20869;-71
2022/11/26 08:23:54;;;;;;;32.47;10.98;;;;;;;5.31;100.00;101843.50;4993950;28;20058;-71
2022/11/26 08:26:22;;;;;;;24.63;9.52;;;;;;;5.31;100.00;101845.25;5003051;28;20100;-72
2022/11/26 08:28:59;;;;;;;17.33;8.95;;;;;;;5.39;100.00;101853.97;4995558;28;20548;-72
2022/11/26 08:31:26;;;;;;;20.73;8.98;;;;;;;5.50;100.00;101853.09;4991006;28;20103;-73
2022/11/26 08:34:00;;;;;;;20.10;8.68;;;;;;;5.50;100.00;101828.56;4983797;28;20141;-72
2022/11/26 08:36:28;;;;;;;19.02;9.35;;;;;;;5.71;100.00;101846.88;4991142;28;20055;-71
2022/11/26 08:38:55;;;;;;;19.55;8.98;;;;;;;5.86;100.00;101856.44;4998849;28;20626;-72
2022/11/26 08:41:22;;;;;;;16.42;8.68;;;;;;;5.92;100.00;101851.22;4996299;28;20065;-71
2022/11/26 08:43:49;;;;;;;17.63;8.13;;;;;;;6.02;100.00;101852.03;4996327;28;20049;-71
2022/11/26 08:46:34;;;;;;;20.08;8.13;;;;;;;5.97;100.00;101834.53;4997986;28;20469;-72
2022/11/26 08:49:00;;;;;;;18.10;8.40;;;;;;;6.18;100.00;101853.69;4996691;28;20514;-72
2022/11/26 08:51:27;;;;;;;18.15;8.10;;;;;;;6.26;100.00;101847.53;4993624;28;20196;-71
2022/11/26 08:53:54;;;;;;;17.95;8.82;;;;;;;6.37;100.00;101852.69;4987878;28;20050;-71
2022/11/26 08:56:20;;;;;;;22.75;8.48;;;;;;;6.39;100.00;101869.34;4990484;28;20122;-72
2022/11/26 08:58:47;;;;;;;23.00;8.15;;;;;;;6.47;100.00;101866.66;4996610;28;20137;-72
2022/11/26 09:01:20;;;;;;;15.00;7.40;;;;;;;6.55;100.00;101868.38;4997976;28;20077;-69
2022/11/26 09:03:48;;;;;;;23.75;8.40;;;;;;;6.53;100.00;101878.03;4986143;28;20057;-72
2022/11/26 09:06:15;;;;;;;18.33;8.15;;;;;;;6.56;100.00;101879.78;5004110;28;20054;-72
2022/11/26 09:11:28;;;;;;;19.33;8.50;;;;;;;6.64;100.00;101886.72;4990476;28;20075;-71
2022/11/26 09:13:56;;;;;;;22.13;9.23;;;;;;;6.51;100.00;101892.06;4994469;28;20403;-72
2022/11/26 09:16:23;;;;;;;21.65;9.95;;;;;;;6.14;100.00;101891.44;5000690;28;20164;-72
2022/11/26 09:18:51;;;;;;;19.77;10.35;;;;;;;5.95;100.00;101894.13;4989971;28;20717;-72
2022/11/26 09:21:18;;;;;;;22.88;10.82;;;;;;;5.97;100.00;101908.16;4988727;28;20129;-71
2022/11/26 09:23:45;;;;;;;21.85;10.35;;;;;;;5.83;100.00;101878.34;4984526;28;20133;-73
2022/11/26 09:26:11;;;;;;;22.58;10.68;;;;;;;6.06;100.00;101894.09;4998273;28;20516;-72
2022/11/26 09:28:38;;;;;;;22.65;10.73;;;;;;;6.24;100.00;101908.91;5000751;28;20054;-73
2022/11/26 09:31:05;;;;;;;20.58;11.60;;;;;;;6.40;100.00;101897.41;4998579;28;20058;-73
2022/11/26 09:33:32;;;;;;;26.27;10.90;;;;;;;6.66;100.00;101911.28;4980295;28;20502;-72
2022/11/26 09:36:13;;;;;;;20.25;10.48;;;;;;;6.69;100.00;101895.47;5001528;28;20054;-72
2022/11/26 09:38:40;;;;;;;21.13;11.18;;;;;;;6.81;100.00;101909.41;4996041;28;20205;-73
2022/11/26 09:41:18;;;;;;;22.15;10.15;;;;;;;6.85;100.00;101904.13;4983213;28;20921;-72
2022/11/26 09:44:12;;;;;;;21.98;9.25;;;;;;;7.02;100.00;101904.88;4985558;28;20054;-71
2022/11/26 09:46:57;;;;;;;18.17;8.60;;;;;;;7.00;100.00;101906.63;4999282;28;20065;-73
2022/11/26 09:50:06;;;;;;;20.70;8.73;;;;;;;6.90;100.00;101909.38;4992735;28;20069;-72
2022/11/26 09:52:41;;;;;;;16.45;8.80;;;;;;;6.81;100.00;101915.56;4978898;28;20082;-71
2022/11/26 09:55:28;;;;;;;20.63;8.65;;;;;;;6.89;100.00;101915.50;4998582;28;20074;-73
2022/11/26 09:58:17;;;;;;;14.60;7.68;;;;;;;7.04;100.00;101902.22;4993620;28;20046;-71
2022/11/26 10:00:54;;;;;;;18.70;7.90;;;;;;;7.22;100.00;101901.19;4995804;28;20049;-71
2022/11/26 10:03:41;;;;;;;17.63;6.90;;;;;;;7.35;100.00;101893.16;4985173;28;20101;-74
2022/11/26 10:07:05;;;;;;;20.02;7.35;;;;;;;7.44;100.00;101897.44;4989425;28;20050;-71
2022/11/26 10:10:02;;;;;;;15.25;6.82;;;;;;;7.50;100.00;101886.84;4972000;28;20134;-74
2022/11/26 10:12:41;;;;;;;18.27;7.47;;;;;;;7.28;100.00;101885.31;4967193;28;20411;-72
2022/11/26 10:15:37;;;;;;;14.60;7.43;;;;;;;7.35;100.00;101892.28;4989925;28;20455;-75
2022/11/26 10:18:12;;;;;;;14.82;6.90;;;;;;;7.40;100.00;101895.72;4992042;28;20451;-73
2022/11/26 10:20:54;;;;;;;16.10;6.95;;;;;;;7.30;100.00;101905.50;4993414;28;20137;-71
2022/11/26 10:23:23;;;;;;;16.98;8.00;;;;;;;7.23;100.00;101902.94;4976522;28;20136;-72
2022/11/26 10:25:54;;;;;;;24.05;8.00;;;;;;;7.25;100.00;101903.78;4997152;28;20469;-73
2022/11/26 10:28:29;;;;;;;20.58;8.05;;;;;;;7.09;100.00;101881.09;4996747;28;20050;-72
2022/11/26 10:31:01;;;;;;;15.18;8.65;;;;;;;7.20;100.00;101898.56;4999791;28;20049;-72
2022/11/26 10:33:36;;;;;;;23.02;9.57;;;;;;;7.26;100.00;101900.25;4976641;28;20138;-72
2022/11/26 10:36:08;;;;;;;17.10;8.85;;;;;;;7.30;100.00;101900.22;5000640;28;20392;-72
2022/11/26 10:38:35;;;;;;;18.73;8.60;;;;;;;7.32;100.00;101908.09;4996325;28;20105;-73
2022/11/26 10:41:02;;;;;;;19.25;9.73;;;;;;;7.15;100.00;101879.28;4999543;28;20465;-73
2022/11/26 10:43:29;;;;;;;19.42;8.95;;;;;;;7.42;100.00;101898.34;4981704;28;20368;-72
2022/11/26 10:45:56;;;;;;;16.27;8.90;;;;;;;7.45;100.00;101904.47;4997159;28;20159;-74
2022/11/26 10:48:30;;;;;;;18.17;9.38;;;;;;;7.50;100.00;101901.78;4995077;28;20058;-74
2022/11/26 10:50:58;;;;;;;20.42;9.48;;;;;;;7.40;100.00;101898.34;4992883;28;20178;-70
2022/11/26 10:53:26;;;;;;;18.35;9.70;;;;;;;7.40;100.00;101896.59;4979228;28;20054;-72
2022/11/26 10:55:57;;;;;;;17.63;9.38;;;;;;;7.31;100.00;101875.63;4996215;28;20462;-71
2022/11/26 10:58:30;;;;;;;15.55;9.68;;;;;;;7.53;100.00;101896.50;4991241;28;20092;-73
2022/11/26 11:01:06;;;;;;;21.33;8.95;;;;;;;7.60;100.00;101899.03;4998524;28;20049;-72
2022/11/26 11:03:46;;;;;;;17.08;8.07;;;;;;;7.62;100.00;101896.38;4980644;28;20050;-72
2022/11/26 11:06:42;;;;;;;19.02;9.30;;;;;;;7.81;100.00;101894.41;4995128;28;20057;-72
2022/11/26 11:09:36;;;;;;;18.08;8.00;;;;;;;7.84;100.00;101892.63;4992782;28;20105;-70
2022/11/26 11:12:16;;;;;;;22.55;8.32;;;;;;;7.52;100.00;101869.25;4995776;28;20049;-70
2022/11/26 11:14:45;;;;;;;18.35;8.65;;;;;;;7.49;100.00;101886.84;4988569;28;20053;-73
2022/11/26 11:17:27;;;;;;;23.30;9.50;;;;;;;7.27;100.00;101873.00;4998887;28;20053;-70
2022/11/26 11:19:56;;;;;;;21.80;8.98;;;;;;;7.33;100.00;101889.66;4998058;28;20050;-72
2022/11/26 11:22:23;;;;;;;21.20;9.30;;;;;;;7.44;100.00;101899.19;4994477;28;20062;-73
2022/11/26 11:24:49;;;;;;;17.83;8.73;;;;;;;7.47;100.00;101899.19;4988682;28;20046;-72
2022/11/26 11:27:31;;;;;;;19.98;9.30;;;;;;;7.45;100.00;101893.03;5002771;28;20929;-72
2022/11/26 11:30:01;;;;;;;19.17;8.35;;;;;;;7.51;100.00;101890.34;4998425;28;20054;-73
2022/11/26 11:32:36;;;;;;;15.23;8.05;;;;;;;7.52;100.00;101884.19;4988438;28;20047;-72
2022/11/26 11:35:18;;;;;;;23.30;9.20;;;;;;;7.46;100.00;101864.03;4998913;28;20042;-72